Time;durP1;ratioP1;P1;durP2;ratioP2;P2;SDS_P1;SDS_P2;PMS_P1;PMS_P2;Temp;Humidity;BMP_temperature;BMP_pressure;BME280_temperature;BME280_humidity;BME280_pressure;Samples;Min_cycle;Max_cycle;Signal;HPM_P1;HPM_P2
2022/04/08 00:01:54;;;;;;;17.05;2.85;;;;;;;5.30;84.68;99724.66;5098541;28;20035;-56
2022/04/08 00:04:19;;;;;;;14.43;2.58;;;;;;;5.34;83.67;99712.88;5100910;28;20513;-57
2022/04/08 00:06:44;;;;;;;14.88;2.88;;;;;;;5.41;82.40;99724.41;5109638;28;20049;-57
2022/04/08 00:09:09;;;;;;;21.63;3.05;;;;;;;5.39;83.16;99729.81;5107695;28;20031;-57
2022/04/08 00:11:35;;;;;;;18.83;2.78;;;;;;;5.34;83.29;99741.78;5100665;28;20054;-57
2022/04/08 00:14:00;;;;;;;10.05;2.10;;;;;;;5.40;82.24;99743.78;5108260;28;20510;-57
2022/04/08 00:16:26;;;;;;;18.02;3.47;;;;;;;5.33;83.14;99742.78;5107340;28;20027;-58
2022/04/08 00:18:51;;;;;;;14.40;2.78;;;;;;;5.34;83.32;99747.84;5106717;28;20032;-57
2022/04/08 00:21:17;;;;;;;18.10;2.80;;;;;;;5.37;82.62;99762.50;5107864;28;20031;-57
2022/04/08 00:23:42;;;;;;;15.13;2.85;;;;;;;5.52;82.60;99766.22;5112260;28;20102;-57
2022/04/08 00:26:08;;;;;;;14.13;2.47;;;;;;;5.55;82.14;99766.88;5112447;28;20152;-57
2022/04/08 00:28:34;;;;;;;17.63;3.22;;;;;;;5.36;83.69;99768.75;5101362;28;20469;-57
2022/04/08 00:31:00;;;;;;;19.40;2.72;;;;;;;5.34;82.60;99762.81;5102010;28;20035;-58
2022/04/08 00:33:25;;;;;;;16.42;2.83;;;;;;;5.25;84.54;99765.38;5102090;28;20059;-57
2022/04/08 00:35:51;;;;;;;15.60;2.80;;;;;;;5.29;82.08;99759.81;5109124;28;20047;-57
2022/04/08 00:38:16;;;;;;;14.60;2.60;;;;;;;5.27;83.78;99767.84;5106861;28;20426;-57
2022/04/08 00:40:41;;;;;;;14.43;2.80;;;;;;;5.23;83.07;99772.59;5103208;28;20460;-57
2022/04/08 00:43:14;;;;;;;14.90;3.28;;;;;;;5.25;83.17;99775.88;5105291;28;20032;-57
2022/04/08 00:45:40;;;;;;;15.10;2.90;;;;;;;5.18;83.47;99774.84;5104630;28;20023;-57
2022/04/08 00:48:07;;;;;;;17.55;3.35;;;;;;;5.15;83.50;99780.44;5101434;28;20032;-57
2022/04/08 00:50:35;;;;;;;13.05;2.92;;;;;;;5.15;84.65;99793.56;5104542;28;20516;-57
2022/04/08 00:53:01;;;;;;;16.10;2.88;;;;;;;5.18;83.75;99793.25;5104817;28;20020;-57
2022/04/08 00:55:26;;;;;;;16.83;3.13;;;;;;;5.14;84.18;99805.06;5099218;28;20026;-57
2022/04/08 00:57:52;;;;;;;20.73;3.10;;;;;;;5.08;84.83;99800.41;5110260;28;20028;-57
2022/04/08 01:00:19;;;;;;;18.23;3.20;;;;;;;5.14;83.60;99805.06;5105062;28;20482;-57
2022/04/08 01:02:44;;;;;;;17.58;3.10;;;;;;;5.14;83.95;99810.31;5108005;28;20035;-57
2022/04/08 01:05:09;;;;;;;20.35;3.40;;;;;;;5.13;84.12;99802.56;5106645;28;20019;-57
2022/04/08 01:07:35;;;;;;;21.10;3.45;;;;;;;5.07;85.05;99804.81;5109584;28;20028;-57
2022/04/08 01:10:00;;;;;;;17.02;3.10;;;;;;;5.14;83.99;99812.09;5102626;28;20402;-57
2022/04/08 01:12:26;;;;;;;16.00;2.85;;;;;;;5.08;84.47;99826.69;5104028;28;20020;-55
2022/04/08 01:14:58;;;;;;;16.77;3.25;;;;;;;5.14;84.33;99830.50;5109831;28;20096;-57
2022/04/08 01:17:23;;;;;;;23.48;3.30;;;;;;;5.00;84.71;99829.22;5110569;28;20020;-56
2022/04/08 01:19:48;;;;;;;18.98;3.03;;;;;;;5.01;83.43;99833.50;5105395;28;20051;-57
2022/04/08 01:22:14;;;;;;;17.60;3.20;;;;;;;5.07;83.40;99835.53;5112254;28;20080;-57
2022/04/08 01:24:40;;;;;;;16.48;2.65;;;;;;;5.02;83.77;99835.19;5112345;27;20035;-57
2022/04/08 01:27:05;;;;;;;20.08;3.30;;;;;;;5.02;83.52;99841.25;5116325;27;20032;-57
2022/04/08 01:29:31;;;;;;;16.15;2.78;;;;;;;4.95;83.42;99833.13;5112262;27;20024;-56
2022/04/08 01:31:56;;;;;;;16.50;3.20;;;;;;;5.00;82.90;99845.00;5113705;28;20023;-57
2022/04/08 01:34:21;;;;;;;18.38;3.38;;;;;;;4.92;82.94;99838.69;5112724;28;20028;-57
2022/04/08 01:36:46;;;;;;;16.35;3.45;;;;;;;5.02;83.40;99856.19;5109899;28;20385;-57
2022/04/08 01:39:12;;;;;;;20.50;3.97;;;;;;;5.12;82.59;99859.56;5110406;27;20030;-56
2022/04/08 01:41:37;;;;;;;15.07;3.13;;;;;;;4.95;83.86;99853.31;5115851;28;20084;-56
2022/04/08 01:44:03;;;;;;;14.35;2.75;;;;;;;5.17;82.14;99851.25;5107697;28;20039;-57
2022/04/08 01:46:28;;;;;;;15.25;2.80;;;;;;;5.04;81.81;99846.34;5111112;28;20760;-57
2022/04/08 01:48:54;;;;;;;15.43;2.95;;;;;;;4.91;82.89;99851.97;5110951;28;20449;-57
2022/04/08 01:51:23;;;;;;;15.02;2.75;;;;;;;4.68;85.35;99850.59;5108479;28;20030;-57
2022/04/08 01:53:49;;;;;;;15.82;2.80;;;;;;;4.81;83.89;99849.41;5108077;28;20031;-58
2022/04/08 01:56:14;;;;;;;16.90;2.90;;;;;;;4.67;85.23;99856.81;5112441;27;20023;-56
2022/04/08 01:58:40;;;;;;;18.50;3.13;;;;;;;4.64;85.70;99859.72;5113661;28;20046;-57
2022/04/08 02:01:05;;;;;;;15.45;3.05;;;;;;;4.58;85.95;99862.94;5110619;28;20087;-56
2022/04/08 02:03:30;;;;;;;20.30;3.38;;;;;;;4.51;86.26;99856.63;5115986;28;20019;-57
2022/04/08 02:05:56;;;;;;;16.80;3.00;;;;;;;4.48;86.11;99872.69;5115589;28;20387;-56
2022/04/08 02:08:22;;;;;;;20.98;3.33;;;;;;;4.44;86.27;99867.72;5115877;27;20035;-57
2022/04/08 02:10:47;;;;;;;19.40;3.00;;;;;;;4.44;86.79;99872.97;5102050;27;20089;-57
2022/04/08 02:13:12;;;;;;;18.95;3.40;;;;;;;4.38;86.72;99868.28;5114936;27;20532;-57
2022/04/08 02:15:38;;;;;;;18.23;3.20;;;;;;;4.44;86.40;99875.59;5112714;28;20038;-57
2022/04/08 02:18:04;;;;;;;20.38;3.58;;;;;;;4.38;86.70;99872.69;5112948;27;20500;-57
2022/04/08 02:20:30;;;;;;;15.80;2.95;;;;;;;4.40;86.47;99882.09;5112933;28;20046;-57
2022/04/08 02:22:57;;;;;;;16.30;3.10;;;;;;;4.41;86.65;99873.25;5116544;27;20450;-56
2022/04/08 02:25:23;;;;;;;17.25;3.67;;;;;;;4.36;87.08;99870.25;5109138;27;20039;-57
2022/04/08 02:27:48;;;;;;;17.13;3.13;;;;;;;4.44;86.52;99877.38;5105332;28;20040;-57
2022/04/08 02:30:13;;;;;;;16.25;3.00;;;;;;;4.41;87.29;99882.94;5113956;27;20093;-57
2022/04/08 02:32:39;;;;;;;17.90;3.08;;;;;;;4.39;86.10;99883.06;5113781;28;20077;-57
2022/04/08 02:35:04;;;;;;;15.50;2.95;;;;;;;4.38;87.21;99894.53;5104926;28;20044;-56
2022/04/08 02:37:30;;;;;;;16.08;3.22;;;;;;;4.41;86.12;99882.94;5108158;27;20028;-56
2022/04/08 02:39:55;;;;;;;16.35;3.45;;;;;;;4.39;86.46;99885.69;5106917;28;20027;-57
2022/04/08 02:42:20;;;;;;;14.80;3.03;;;;;;;4.39;86.76;99884.88;5114142;28;20405;-55
2022/04/08 02:44:45;;;;;;;16.70;3.42;;;;;;;4.32;87.32;99900.38;5112048;28;20051;-57
2022/04/08 02:47:11;;;;;;;16.55;3.30;;;;;;;4.26;86.61;99890.44;5109001;28;20054;-56
2022/04/08 02:49:37;;;;;;;16.45;2.85;;;;;;;4.25;86.88;99894.03;5106434;28;20058;-57
2022/04/08 02:52:02;;;;;;;15.27;3.45;;;;;;;4.20;86.58;99886.63;5109530;28;20056;-57
2022/04/08 02:54:27;;;;;;;18.92;3.28;;;;;;;4.21;86.94;99887.41;5109551;28;20092;-57
2022/04/08 02:56:52;;;;;;;17.08;3.00;;;;;;;4.15;87.23;99889.63;5109980;28;20035;-57
2022/04/08 02:59:18;;;;;;;15.40;3.03;;;;;;;4.16;86.51;99896.53;5108637;28;20024;-56
2022/04/08 03:01:43;;;;;;;13.00;2.83;;;;;;;4.15;86.19;99894.88;5109821;28;20050;-57
2022/04/08 03:04:09;;;;;;;18.45;3.17;;;;;;;4.15;86.77;99894.88;5111284;28;20026;-57
2022/04/08 03:06:35;;;;;;;14.30;3.00;;;;;;;4.13;86.74;99896.84;5108600;28;20066;-57
2022/04/08 03:09:01;;;;;;;16.45;3.03;;;;;;;4.14;86.34;99895.88;5110301;28;20039;-57
2022/04/08 03:11:26;;;;;;;18.77;3.30;;;;;;;4.11;86.50;99893.53;5109514;28;20435;-56
2022/04/08 03:13:51;;;;;;;11.85;2.90;;;;;;;4.12;86.82;99900.44;5113306;28;20027;-57
2022/04/08 03:16:16;;;;;;;13.85;2.80;;;;;;;4.10;86.39;99898.94;5107982;28;20031;-56
2022/04/08 03:18:42;;;;;;;14.80;3.22;;;;;;;4.09;86.56;99900.72;5098412;28;20063;-57
2022/04/08 03:21:07;;;;;;;18.75;3.38;;;;;;;4.07;86.24;99897.41;5098231;28;20367;-56
2022/04/08 03:23:32;;;;;;;14.98;3.55;;;;;;;4.04;86.60;99897.69;5104699;28;20076;-57
2022/04/08 03:25:58;;;;;;;13.93;2.75;;;;;;;4.02;86.77;99900.47;5106556;28;20130;-56
2022/04/08 03:28:23;;;;;;;17.83;4.05;;;;;;;4.03;86.39;99911.78;5108942;28;20346;-57
2022/04/08 03:30:48;;;;;;;17.17;3.40;;;;;;;3.98;86.78;99913.97;5098306;28;20047;-57
2022/04/08 03:33:13;;;;;;;16.65;3.03;;;;;;;3.95;86.81;99914.28;5112786;28;20474;-57
2022/04/08 03:35:39;;;;;;;12.70;3.30;;;;;;;3.97;86.17;99920.22;5110369;28;20035;-55
2022/04/08 03:38:04;;;;;;;15.85;3.00;;;;;;;3.89;86.81;99921.75;5107234;28;20040;-57
2022/04/08 03:40:31;;;;;;;15.82;2.95;;;;;;;3.87;86.87;99928.94;5100483;28;20040;-57
2022/04/08 03:42:56;;;;;;;14.52;3.30;;;;;;;3.84;87.40;99929.19;5109824;28;20390;-57
2022/04/08 03:45:21;;;;;;;13.95;3.10;;;;;;;3.81;86.81;99920.78;5098739;28;20035;-56
2022/04/08 03:47:48;;;;;;;15.20;3.40;;;;;;;3.80;87.16;99919.13;5104460;28;20489;-57
2022/04/08 03:50:13;;;;;;;15.38;3.10;;;;;;;3.77;87.12;99923.69;5099058;28;20028;-57
2022/04/08 03:52:38;;;;;;;15.98;3.00;;;;;;;3.71;87.52;99923.44;5110586;28;20055;-56
2022/04/08 03:55:04;;;;;;;14.10;3.67;;;;;;;3.70;87.53;99921.78;5111714;28;20065;-56
2022/04/08 03:57:30;;;;;;;15.77;3.45;;;;;;;3.69;87.68;99935.84;5113570;28;20051;-56
2022/04/08 03:59:55;;;;;;;15.27;3.25;;;;;;;3.65;87.77;99929.22;5102976;28;20024;-57
2022/04/08 04:02:21;;;;;;;14.85;3.53;;;;;;;3.68;87.42;99942.03;5107040;28;20366;-56
2022/04/08 04:04:46;;;;;;;8.97;3.07;;;;;;;3.61;87.92;99929.50;5105130;28;20672;-56
2022/04/08 04:07:12;;;;;;;13.57;3.20;;;;;;;3.60;87.70;99938.31;5109972;28;20035;-57
2022/04/08 04:09:37;;;;;;;12.10;3.50;;;;;;;3.62;88.18;99936.38;5110458;28;20052;-57
2022/04/08 04:12:03;;;;;;;12.93;3.57;;;;;;;3.61;88.32;99934.72;5111335;28;20028;-56
2022/04/08 04:14:29;;;;;;;13.27;3.38;;;;;;;3.59;88.24;99931.44;5110231;28;20039;-56
2022/04/08 04:16:54;;;;;;;11.57;3.67;;;;;;;3.58;88.18;99936.81;5109237;28;20114;-56
2022/04/08 04:19:20;;;;;;;12.57;3.72;;;;;;;3.54;88.16;99922.34;5102726;28;20042;-56
2022/04/08 04:21:47;;;;;;;12.93;3.65;;;;;;;3.55;87.87;99924.81;5109097;28;20038;-57
2022/04/08 04:24:14;;;;;;;12.83;3.80;;;;;;;3.47;88.21;99928.09;5109452;28;20451;-57
2022/04/08 04:26:39;;;;;;;12.80;3.70;;;;;;;3.46;87.66;99917.78;5111216;28;20032;-57
2022/04/08 04:29:04;;;;;;;14.50;3.80;;;;;;;3.47;88.64;99916.81;5102081;28;20032;-56
2022/04/08 04:31:29;;;;;;;14.90;3.90;;;;;;;3.47;88.54;99927.28;5104149;28;20032;-56
2022/04/08 04:33:55;;;;;;;12.98;3.85;;;;;;;3.44;88.14;99923.16;5110621;28;20034;-56
2022/04/08 04:36:20;;;;;;;12.67;3.77;;;;;;;3.49;87.71;99925.34;5103200;28;20031;-56
2022/04/08 04:38:45;;;;;;;12.13;4.10;;;;;;;3.42;87.64;99919.00;5109580;28;20043;-57
2022/04/08 04:41:10;;;;;;;16.13;4.20;;;;;;;3.41;88.09;99931.28;5098991;28;20454;-56
2022/04/08 04:43:36;;;;;;;13.93;4.20;;;;;;;3.40;87.94;99931.44;5108322;28;20133;-57
2022/04/08 04:46:03;;;;;;;16.63;4.47;;;;;;;3.40;88.03;99931.44;5109383;28;20040;-57
2022/04/08 04:48:29;;;;;;;10.53;3.97;;;;;;;3.38;88.17;99931.56;5104178;28;20028;-57
2022/04/08 04:50:56;;;;;;;14.07;4.70;;;;;;;3.38;87.84;99938.59;5104296;28;20034;-57
2022/04/08 04:53:21;;;;;;;13.43;4.63;;;;;;;3.36;88.08;99934.31;5110733;28;20406;-56
2022/04/08 04:55:46;;;;;;;14.47;4.93;;;;;;;3.30;88.16;99927.00;5108923;28;20036;-56
2022/04/08 04:58:11;;;;;;;16.93;5.17;;;;;;;3.30;88.26;99927.00;5107065;28;20036;-55
2022/04/08 05:00:37;;;;;;;19.53;5.47;;;;;;;3.30;88.16;99927.00;5102604;28;20031;-56
2022/04/08 05:03:03;;;;;;;16.97;5.83;;;;;;;3.29;88.31;99920.09;5104738;28;20046;-58
2022/04/08 05:05:28;;;;;;;16.37;6.17;;;;;;;3.31;88.81;99919.97;5109156;28;20044;-56
2022/04/08 05:07:54;;;;;;;13.93;6.40;;;;;;;3.33;88.57;99924.13;5109900;28;20113;-57
2022/04/08 05:10:19;;;;;;;14.85;6.63;;;;;;;3.32;89.06;99909.38;5105569;28;20055;-58
2022/04/08 05:12:44;;;;;;;16.73;7.00;;;;;;;3.34;88.74;99923.16;5111687;28;20036;-57
2022/04/08 05:15:11;;;;;;;19.20;7.10;;;;;;;3.34;88.91;99923.16;5105492;28;21806;-55
2022/04/08 05:17:37;;;;;;;16.23;6.77;;;;;;;3.36;89.20;99925.63;5110524;28;20075;-59
2022/04/08 05:20:03;;;;;;;16.60;7.20;;;;;;;3.38;88.61;99918.47;5097656;28;20035;-58
2022/04/08 05:22:28;;;;;;;17.43;6.67;;;;;;;3.38;88.42;99917.63;5104530;28;20031;-58
2022/04/08 05:24:53;;;;;;;16.30;6.97;;;;;;;3.39;88.90;99921.91;5110759;28;20103;-58
2022/04/08 05:27:19;;;;;;;13.00;6.60;;;;;;;3.41;87.97;99927.84;5105544;28;20024;-58
2022/04/08 05:29:44;;;;;;;14.20;6.60;;;;;;;3.38;88.53;99923.69;5110702;28;20036;-58
2022/04/08 05:32:09;;;;;;;18.00;7.03;;;;;;;3.44;88.71;99927.56;5106159;28;20039;-58
2022/04/08 05:34:35;;;;;;;16.93;7.40;;;;;;;3.47;88.58;99919.44;5097979;28;20362;-58
2022/04/08 05:37:08;;;;;;;17.30;7.70;;;;;;;3.52;88.58;99919.84;5105539;28;20381;-58
2022/04/08 05:39:33;;;;;;;16.33;8.15;;;;;;;3.53;88.55;99913.63;5102713;28;20035;-58
2022/04/08 05:41:58;;;;;;;17.23;8.52;;;;;;;3.55;88.66;99914.31;5099565;28;20024;-58
2022/04/08 05:44:23;;;;;;;15.57;8.40;;;;;;;3.56;88.94;99909.91;5098237;28;20027;-58
2022/04/08 05:46:49;;;;;;;17.52;9.35;;;;;;;3.57;88.66;99912.41;5103964;28;20652;-58
2022/04/08 05:49:14;;;;;;;20.10;9.82;;;;;;;3.58;89.68;99913.22;5100329;28;20027;-58
2022/04/08 05:51:39;;;;;;;17.67;10.00;;;;;;;3.59;89.67;99905.22;5104938;28;20114;-57
2022/04/08 05:54:05;;;;;;;21.13;10.25;;;;;;;3.59;90.10;99907.00;5102955;28;20105;-59
2022/04/08 05:56:30;;;;;;;18.63;9.80;;;;;;;3.59;90.06;99899.97;5103906;28;20046;-57
2022/04/08 05:58:57;;;;;;;20.58;10.13;;;;;;;3.58;89.92;99897.47;5100616;28;20035;-57
2022/04/08 06:01:22;;;;;;;18.55;10.00;;;;;;;3.61;89.98;99898.03;5097509;28;20560;-57
2022/04/08 06:03:48;;;;;;;22.63;10.27;;;;;;;3.63;89.82;99896.13;5101369;28;20111;-57
2022/04/08 06:06:13;;;;;;;22.20;9.93;;;;;;;3.64;89.51;99902.16;5102272;28;20051;-57
2022/04/08 06:08:38;;;;;;;16.60;10.18;;;;;;;3.65;89.60;99897.75;5088174;28;20063;-58
2022/04/08 06:11:04;;;;;;;19.52;9.88;;;;;;;3.70;89.55;99906.03;5105777;28;20437;-58
2022/04/08 06:13:29;;;;;;;19.45;10.43;;;;;;;3.73;89.42;99900.50;5106636;28;20051;-57
2022/04/08 06:15:56;;;;;;;18.27;10.20;;;;;;;3.75;89.25;99898.59;5106290;28;20082;-58
2022/04/08 06:18:21;;;;;;;18.63;9.80;;;;;;;3.81;89.27;99903.28;5099747;28;20039;-58
2022/04/08 06:20:47;;;;;;;18.90;9.13;;;;;;;3.87;89.18;99900.09;5101918;28;20397;-58
2022/04/08 06:23:12;;;;;;;18.73;9.07;;;;;;;3.85;89.17;99899.38;5102682;28;20028;-58
2022/04/08 06:25:38;;;;;;;18.45;8.98;;;;;;;3.89;89.36;99906.00;5107032;28;20130;-57
2022/04/08 06:28:05;;;;;;;17.98;9.23;;;;;;;3.83;89.26;99896.06;5102828;28;20106;-58
2022/04/08 06:30:40;;;;;;;15.88;8.65;;;;;;;3.97;89.07;99907.09;5105741;28;20031;-58
2022/04/08 06:33:07;;;;;;;18.35;8.52;;;;;;;3.99;88.70;99910.41;5102354;28;20027;-58
2022/04/08 06:35:33;;;;;;;18.20;9.57;;;;;;;4.02;88.49;99904.88;5105188;28;20027;-58
2022/04/08 06:38:04;;;;;;;14.70;8.30;;;;;;;4.10;88.16;99902.34;5103318;28;20088;-58
2022/04/08 06:40:31;;;;;;;18.58;8.30;;;;;;;4.17;88.15;99898.22;5103548;28;20431;-58
2022/04/08 06:42:59;;;;;;;16.52;8.00;;;;;;;4.25;87.84;99894.84;5104845;28;20377;-58
2022/04/08 06:45:26;;;;;;;13.40;8.45;;;;;;;4.35;88.22;99883.50;5105041;28;20180;-58
2022/04/08 06:47:52;;;;;;;15.82;7.90;;;;;;;4.42;87.46;99888.03;5107936;28;20030;-58
2022/04/08 06:50:18;;;;;;;21.40;8.43;;;;;;;4.49;87.33;99884.84;5098081;28;20111;-58
2022/04/08 06:52:44;;;;;;;18.33;8.02;;;;;;;4.58;86.79;99887.41;5105219;28;20106;-58
2022/04/08 06:55:10;;;;;;;16.15;7.35;;;;;;;4.58;85.95;99889.19;5112784;28;20032;-58
2022/04/08 06:57:35;;;;;;;16.00;7.80;;;;;;;4.59;85.82;99882.97;5109339;27;20035;-58
2022/04/08 07:00:03;;;;;;;14.68;7.50;;;;;;;4.73;84.87;99880.84;5100528;28;20047;-58
2022/04/08 07:02:28;;;;;;;14.57;7.20;;;;;;;4.64;86.55;99879.91;5110378;28;20020;-58
2022/04/08 07:04:53;;;;;;;13.50;7.30;;;;;;;4.73;85.21;99884.28;5112409;28;20032;-58
2022/04/08 07:07:19;;;;;;;16.67;7.35;;;;;;;4.70;85.25;99888.03;5100739;28;20024;-57
2022/04/08 07:09:44;;;;;;;17.13;7.75;;;;;;;4.75;85.93;99884.13;5098829;28;20062;-58
2022/04/08 07:12:09;;;;;;;13.13;6.88;;;;;;;4.79;85.80;99888.13;5104591;28;20473;-57
2022/04/08 07:14:35;;;;;;;11.30;5.95;;;;;;;4.80;84.52;99887.16;5107773;28;20035;-57
2022/04/08 07:17:01;;;;;;;11.13;6.20;;;;;;;4.89;83.86;99886.25;5113198;28;20043;-58
2022/04/08 07:19:26;;;;;;;13.07;6.43;;;;;;;4.92;83.08;99880.72;5100646;28;20031;-58
2022/04/08 07:21:51;;;;;;;13.45;6.20;;;;;;;4.93;83.26;99874.50;5108031;28;20040;-58
2022/04/08 07:24:17;;;;;;;13.73;6.43;;;;;;;4.93;84.58;99874.50;5106219;28;20086;-57
2022/04/08 07:26:42;;;;;;;13.80;6.03;;;;;;;5.07;82.62;99873.16;5104663;28;20035;-59
2022/04/08 07:29:07;;;;;;;11.50;6.30;;;;;;;5.09;82.45;99873.00;5105977;28;20051;-58
2022/04/08 07:31:34;;;;;;;12.80;5.78;;;;;;;5.03;82.54;99861.28;5103781;28;20158;-58
2022/04/08 07:33:59;;;;;;;11.90;5.97;;;;;;;5.05;82.80;99863.75;5106207;28;20037;-58
2022/04/08 07:36:26;;;;;;;12.02;5.93;;;;;;;5.11;83.15;99876.31;5101392;28;20028;-58
2022/04/08 07:38:51;;;;;;;14.38;5.80;;;;;;;5.12;83.21;99864.81;5103004;28;20035;-58
2022/04/08 07:41:16;;;;;;;10.82;5.70;;;;;;;5.21;82.26;99869.19;5105872;28;20043;-58
2022/04/08 07:43:42;;;;;;;11.73;5.70;;;;;;;5.26;81.29;99866.09;5105420;28;20040;-58
2022/04/08 07:46:07;;;;;;;13.98;6.10;;;;;;;5.28;82.60;99868.59;5106214;28;22073;-59
2022/04/08 07:48:33;;;;;;;15.20;5.60;;;;;;;5.31;81.35;99873.53;5105516;28;20028;-59
2022/04/08 07:50:58;;;;;;;10.82;5.82;;;;;;;5.32;81.34;99869.94;5106184;28;20024;-58
2022/04/08 07:53:24;;;;;;;14.35;6.03;;;;;;;5.33;81.68;99861.06;5111579;28;20034;-58
2022/04/08 07:55:49;;;;;;;10.40;5.30;;;;;;;5.38;80.78;99857.00;5100783;28;20028;-57
2022/04/08 07:58:15;;;;;;;13.25;5.72;;;;;;;5.39;81.93;99855.22;5109340;28;20362;-58
2022/04/08 08:00:40;;;;;;;11.57;6.00;;;;;;;5.45;82.52;99856.38;5112096;28;20020;-58
2022/04/08 08:03:05;;;;;;;8.25;4.97;;;;;;;5.63;79.66;99864.25;5107242;28;20040;-58
2022/04/08 08:05:33;;;;;;;10.30;5.60;;;;;;;5.52;80.53;99855.63;5103043;28;20038;-58
2022/04/08 08:08:01;;;;;;;13.40;6.18;;;;;;;5.56;79.81;99860.56;5104712;28;20024;-58
2022/04/08 08:10:32;;;;;;;12.93;5.47;;;;;;;5.58;79.86;99853.38;5099637;28;20044;-58
2022/04/08 08:13:00;;;;;;;10.35;5.40;;;;;;;5.61;79.94;99858.31;5110212;28;20108;-58
2022/04/08 08:15:26;;;;;;;12.43;5.22;;;;;;;5.65;78.52;99855.25;5106309;28;20016;-58
2022/04/08 08:17:52;;;;;;;11.32;5.10;;;;;;;5.66;78.53;99853.44;5107229;28;20031;-58
2022/04/08 08:20:19;;;;;;;10.52;5.13;;;;;;;5.70;77.20;99861.81;5100420;28;20477;-58
2022/04/08 08:22:45;;;;;;;10.35;4.88;;;;;;;5.72;77.61;99860.69;5108406;28;20055;-58
2022/04/08 08:25:11;;;;;;;13.25;5.15;;;;;;;5.74;77.59;99861.38;5112095;28;20063;-58
2022/04/08 08:27:41;;;;;;;14.10;5.93;;;;;;;5.76;77.79;99862.06;5110657;28;20549;-58
2022/04/08 08:30:10;;;;;;;16.42;5.85;;;;;;;5.80;77.57;99852.03;5094587;28;20071;-58
2022/04/08 08:32:36;;;;;;;13.43;5.22;;;;;;;5.83;76.69;99850.91;5096222;28;20024;-59
2022/04/08 08:35:01;;;;;;;10.27;4.47;;;;;;;5.83;75.97;99840.38;5099808;28;20020;-58
2022/04/08 08:37:26;;;;;;;10.90;5.10;;;;;;;5.86;76.95;99834.78;5106774;28;20020;-59
2022/04/08 08:39:55;;;;;;;11.82;4.90;;;;;;;5.93;76.15;99835.84;5108175;28;20027;-58
2022/04/08 08:42:22;;;;;;;11.57;5.20;;;;;;;6.02;76.08;99823.56;5107890;28;20020;-58
2022/04/08 08:44:47;;;;;;;9.27;5.25;;;;;;;6.03;76.92;99814.72;5104452;28;20074;-58
2022/04/08 08:47:14;;;;;;;11.25;4.72;;;;;;;6.10;75.04;99814.88;5110426;28;20063;-58
2022/04/08 08:49:45;;;;;;;10.60;4.40;;;;;;;6.13;74.24;99809.31;5101071;28;20035;-58
2022/04/08 08:52:10;;;;;;;10.93;4.45;;;;;;;6.10;72.19;99809.63;5103541;28;20535;-60
2022/04/08 08:54:36;;;;;;;10.93;4.43;;;;;;;6.12;73.32;99808.50;5104067;28;20032;-62
2022/04/08 08:57:02;;;;;;;11.88;4.75;;;;;;;6.21;74.25;99801.44;5104775;28;20031;-60
2022/04/08 08:59:29;;;;;;;9.23;4.50;;;;;;;6.27;73.29;99800.81;5102173;28;20038;-61
2022/04/08 09:02:03;;;;;;;12.40;4.32;;;;;;;6.35;70.74;99801.84;5108659;28;20047;-61
2022/04/08 09:04:30;;;;;;;9.57;4.07;;;;;;;6.35;71.57;99801.84;5104301;28;20359;-58
2022/04/08 09:06:56;;;;;;;9.85;4.40;;;;;;;6.41;72.75;99802.03;5105673;28;20110;-57
2022/04/08 09:09:31;;;;;;;13.80;4.45;;;;;;;6.47;71.73;99790.03;5102665;28;20134;-59
2022/04/08 09:12:13;;;;;;;10.50;4.07;;;;;;;6.51;69.23;99786.06;5103478;28;20028;-58
2022/04/08 09:14:38;;;;;;;11.30;4.20;;;;;;;6.54;71.24;99788.41;5102986;28;20024;-57
2022/04/08 09:17:04;;;;;;;10.63;4.05;;;;;;;6.61;71.39;99791.19;5103265;28;20027;-57
2022/04/08 09:19:33;;;;;;;12.25;3.60;;;;;;;6.66;68.04;99790.75;5106389;28;20056;-57
2022/04/08 09:21:58;;;;;;;12.55;4.00;;;;;;;6.61;69.26;99795.66;5104339;28;20363;-57
2022/04/08 09:24:24;;;;;;;9.30;3.88;;;;;;;6.66;69.61;99798.63;5110306;28;20042;-57
2022/04/08 09:26:53;;;;;;;8.77;3.53;;;;;;;6.66;68.46;99793.38;5108921;28;20096;-57
2022/04/08 09:29:20;;;;;;;10.70;3.63;;;;;;;6.68;67.61;99792.22;5109431;28;20027;-57
2022/04/08 09:31:51;;;;;;;8.98;3.70;;;;;;;6.67;68.31;99795.00;5101774;28;20024;-57
2022/04/08 09:34:16;;;;;;;14.90;5.50;;;;;;;6.73;69.13;99794.38;5102295;28;20027;-57
2022/04/08 09:36:43;;;;;;;11.13;3.88;;;;;;;6.74;68.97;99785.47;5103253;28;20035;-58
2022/04/08 09:39:13;;;;;;;10.30;3.90;;;;;;;6.77;69.18;99789.59;5104775;28;20454;-57
2022/04/08 09:41:42;;;;;;;11.00;3.80;;;;;;;6.79;67.54;99798.16;5088306;28;20394;-58
2022/04/08 09:44:09;;;;;;;8.82;3.25;;;;;;;6.79;67.15;99793.72;5107120;28;20066;-56
2022/04/08 09:46:36;;;;;;;8.35;3.25;;;;;;;6.78;66.67;99780.69;5101966;28;20119;-56
2022/04/08 09:49:04;;;;;;;9.57;3.50;;;;;;;6.81;67.27;99786.47;5107070;28;20490;-56
2022/04/08 09:51:34;;;;;;;8.45;3.03;;;;;;;6.88;66.93;99791.09;5104557;28;20113;-56
2022/04/08 09:54:00;;;;;;;8.00;3.05;;;;;;;6.90;66.02;99789.13;5112260;28;20486;-56
2022/04/08 09:56:28;;;;;;;12.75;3.15;;;;;;;6.89;64.88;99782.19;5113254;28;20548;-56
2022/04/08 09:59:01;;;;;;;11.73;3.28;;;;;;;6.83;65.08;99779.25;5105713;28;20145;-56
2022/04/08 10:01:28;;;;;;;13.57;3.55;;;;;;;6.92;64.92;99793.25;5107289;28;20602;-55
2022/04/08 10:03:53;;;;;;;10.13;3.30;;;;;;;6.86;65.22;99778.91;5115301;28;20051;-58
2022/04/08 10:06:19;;;;;;;9.30;3.10;;;;;;;6.92;66.00;99787.13;5110263;28;20055;-57
2022/04/08 10:08:46;;;;;;;9.90;3.10;;;;;;;6.93;65.13;99778.25;5101598;28;20024;-58
2022/04/08 10:11:27;;;;;;;7.95;3.17;;;;;;;6.99;66.07;99769.69;5109200;28;20039;-58
2022/04/08 10:13:58;;;;;;;8.70;3.60;;;;;;;7.02;65.97;99781.72;5099921;28;20088;-58
2022/04/08 10:16:23;;;;;;;12.02;3.75;;;;;;;7.03;65.02;99784.19;5107314;28;20500;-57
2022/04/08 10:18:54;;;;;;;8.27;3.30;;;;;;;7.04;64.87;99779.72;5106643;28;20023;-56
2022/04/08 10:21:20;;;;;;;8.60;3.45;;;;;;;7.03;64.25;99778.91;5103627;28;20402;-55
2022/04/08 10:23:51;;;;;;;12.57;4.05;;;;;;;7.05;64.45;99784.84;5109038;28;20161;-56
2022/04/08 10:26:22;;;;;;;10.77;3.53;;;;;;;7.09;65.55;99772.97;5113960;28;20027;-56
2022/04/08 10:28:48;;;;;;;10.18;3.72;;;;;;;7.14;65.41;99775.13;5100399;28;20165;-56
2022/04/08 10:31:20;;;;;;;9.20;3.33;;;;;;;7.21;65.24;99770.03;5104849;28;20028;-56
2022/04/08 10:33:52;;;;;;;8.73;4.10;;;;;;;7.18;65.66;99765.91;5101126;27;20024;-57
2022/04/08 10:36:17;;;;;;;9.97;3.67;;;;;;;7.19;65.42;99766.69;5114430;28;20156;-56
2022/04/08 10:38:42;;;;;;;11.48;4.05;;;;;;;7.13;66.18;99768.19;5105346;28;20294;-57
2022/04/08 10:41:11;;;;;;;11.45;3.92;;;;;;;7.12;67.03;99767.38;5114382;28;20028;-57
2022/04/08 10:43:47;;;;;;;14.70;4.13;;;;;;;7.20;65.59;99763.09;5103990;28;20104;-56
2022/04/08 10:46:26;;;;;;;14.73;4.03;;;;;;;7.10;67.44;99763.25;5104601;28;20497;-56
2022/04/08 10:48:56;;;;;;;11.02;4.43;;;;;;;7.16;65.73;99765.25;5104331;28;20038;-56
2022/04/08 10:51:21;;;;;;;15.25;4.40;;;;;;;7.15;65.94;99768.03;5113819;28;20046;-56
2022/04/08 10:53:47;;;;;;;9.93;3.83;;;;;;;7.14;65.28;99767.22;5113609;28;20477;-57
2022/04/08 10:56:14;;;;;;;10.98;3.58;;;;;;;7.05;65.98;99760.31;5110797;28;20103;-57
2022/04/08 10:58:49;;;;;;;13.80;4.78;;;;;;;7.10;66.58;99766.72;5101656;28;20024;-56
2022/04/08 11:01:17;;;;;;;9.65;4.10;;;;;;;7.13;66.42;99773.47;5098128;28;20066;-56
2022/04/08 11:03:46;;;;;;;9.52;3.83;;;;;;;7.09;66.42;99767.72;5109865;28;20042;-56
2022/04/08 11:06:13;;;;;;;11.52;3.92;;;;;;;7.19;66.07;99770.19;5112971;28;20473;-56
2022/04/08 11:08:38;;;;;;;10.18;4.10;;;;;;;7.08;66.53;99760.78;5106353;28;20066;-56
2022/04/08 11:11:04;;;;;;;10.57;4.00;;;;;;;7.11;66.32;99749.09;5106424;28;20136;-57
2022/04/08 11:13:29;;;;;;;8.32;4.18;;;;;;;7.16;66.63;99743.31;5106446;28;20073;-57
2022/04/08 11:15:54;;;;;;;11.35;3.80;;;;;;;7.18;64.78;99739.53;5102103;28;20046;-56
2022/04/08 11:18:19;;;;;;;11.38;3.83;;;;;;;7.18;65.42;99743.97;5105484;28;20087;-56
2022/04/08 11:20:49;;;;;;;11.00;4.00;;;;;;;7.22;65.60;99740.00;5108257;28;20073;-55
2022/04/08 11:23:24;;;;;;;11.18;4.03;;;;;;;7.16;65.34;99736.25;5110828;28;20034;-57
2022/04/08 11:25:50;;;;;;;10.32;3.80;;;;;;;7.20;64.17;99739.38;5107014;28;20473;-56
2022/04/08 11:28:16;;;;;;;13.23;3.47;;;;;;;7.20;63.78;99732.28;5108319;28;20038;-56
2022/04/08 11:30:42;;;;;;;10.35;3.70;;;;;;;7.24;63.16;99724.84;5113300;27;20110;-56